Detall de PIREP

Printer-friendly versionPDF version

[2017/03/25 08:47:00]
Flight IATA:CT3125
Pilot Number:012
Company ICAO:CAT
Aircraft Type:DC3/A
PAX:0
Aircraft Registration:CARGO
Departing Airport: LEVC
Destination Airport: LFMP
Alternate Airport:LEBL
Online: VATSIM
Route:SOPET B28 BCN R870 DALIN A67 BGR A27 KANIG
Flight Level:F100
No Slew and time accel
No pause
Crash detect
Detect pilot in Cockpit between each 30 and 45 minutes
08:47 Zero fuel Weight: 20225 Lbs, Fuel Weight: 2511 Lbs
08:47 VATSIM:LEVC 250830Z 26017KT 9999 FEW020 12/02 Q1016 NOSIG
08:47 VATSIM:LFMP 250830Z AUTO 15007KT 9999 FEW022 SCT028 BKN036 11/07 Q1009 BECMG 16025G35KT
08:50 Parking Brakes off
08:55 Take-off
08:55 Take off Weight: 22704 Lbs
08:55 Wind: 260º @ 017 Knots Heading: 293º
08:55 POS N39º 29´ 10´´ W000º 28´ 25´´
08:55 Gear Up: 101 Knots
09:06 TOC
09:06 Fuel Weight: 2327 Lb
09:10 Wind:266º@020 Knots Heading: 044º Ground Speed: 181 Knots Altitude 10072 ft
09:25 Wind:286º@021 Knots Heading: 040º Ground Speed: 177 Knots Altitude 10045 ft
09:40 Wind:302º@022 Knots Heading: 040º Ground Speed: 171 Knots Altitude 10042 ft
09:55 Wind:263º@021 Knots Heading: 062º Ground Speed: 184 Knots Altitude 10039 ft
10:10 Wind:120º@010 Knots Heading: 069º Ground Speed: 161 Knots Altitude 10036 ft
10:25 Wind:120º@010 Knots Heading: 345º Ground Speed: 175 Knots Altitude 10022 ft
10:27 TOD
10:27 Fuel Weight: 1391 Lb
10:37 Flaps:1 at 162 Knots
10:39 Flaps:2 at 127 Knots
10:39 Gear Down: 121 Knots
10:40 Wind:180º@031 Knots Heading: 271º Ground Speed: 124 Knots Altitude 2286 ft
10:43 Flaps:3 at 101 Knots
10:47 TouchDown:Rate -161 ft/min Speed: 61 Knots
10:47 Flaps:0 at 52 Knots
10:47 VATSIM:LFMP 251030Z AUTO 18029G41KT CAVOK 13/03 Q1011 NOSIG
10:47 Land
10:47 Wind:179º@033 Knots
10:47 Heading: 149º
10:47 FlightDuration: 01:52
10:47 Landing Weight: 21447 Lbs
10:47 POS N42º 44´ 39´´ E002º 52´ 11´´
10:49 Parking brakes on
10:49 Block to Block Duration: 01:59
10:49 Final Fuel: 1212 Lbls
10:49 Spent Fuel: 1298 Lbls
10:49 Flight Length: 304 NM
10:49 TOD Land Length: 44 NM

Exportar CSV

Powered by Drupal - Modified by Danger4k